sensor_id;sensor_type;location;lat;lon;timestamp;P1;durP1;ratioP1;P2;durP2;ratioP2
39782;SDS011;25462;51.164;17.100;2023-03-17T00:00:13;60.20;;;25.30;;
39782;SDS011;25462;51.164;17.100;2023-03-17T00:05:39;55.40;;;23.40;;
39782;SDS011;25462;51.164;17.100;2023-03-17T00:10:43;58.30;;;24.30;;
39782;SDS011;25462;51.164;17.100;2023-03-17T00:15:59;52.60;;;23.90;;
39782;SDS011;25462;51.164;17.100;2023-03-17T00:21:09;57.90;;;25.30;;
39782;SDS011;25462;51.164;17.100;2023-03-17T00:26:16;52.60;;;21.40;;
39782;SDS011;25462;51.164;17.100;2023-03-17T00:31:23;49.70;;;22.80;;
39782;SDS011;25462;51.164;17.100;2023-03-17T00:36:30;52.20;;;22.60;;
39782;SDS011;25462;51.164;17.100;2023-03-17T00:41:37;48.10;;;19.40;;
39782;SDS011;25462;51.164;17.100;2023-03-17T00:46:42;41.60;;;18.30;;
39782;SDS011;25462;51.164;17.100;2023-03-17T00:51:48;40.70;;;18.40;;
39782;SDS011;25462;51.164;17.100;2023-03-17T00:56:52;42.30;;;18.20;;
39782;SDS011;25462;51.164;17.100;2023-03-17T01:01:56;44.70;;;18.20;;
39782;SDS011;25462;51.164;17.100;2023-03-17T01:07:00;44.70;;;18.50;;
39782;SDS011;25462;51.164;17.100;2023-03-17T01:12:05;51.60;;;19.60;;
39782;SDS011;25462;51.164;17.100;2023-03-17T01:17:16;48.70;;;18.20;;
39782;SDS011;25462;51.164;17.100;2023-03-17T01:22:23;43.00;;;16.40;;
39782;SDS011;25462;51.164;17.100;2023-03-17T01:27:26;39.70;;;16.20;;
39782;SDS011;25462;51.164;17.100;2023-03-17T01:32:31;39.70;;;15.60;;
39782;SDS011;25462;51.164;17.100;2023-03-17T01:37:37;36.80;;;14.30;;
39782;SDS011;25462;51.164;17.100;2023-03-17T01:42:50;32.20;;;13.30;;
39782;SDS011;25462;51.164;17.100;2023-03-17T01:47:56;32.90;;;13.00;;
39782;SDS011;25462;51.164;17.100;2023-03-17T01:53:02;31.50;;;13.00;;
39782;SDS011;25462;51.164;17.100;2023-03-17T01:58:07;30.20;;;13.60;;
39782;SDS011;25462;51.164;17.100;2023-03-17T02:03:12;33.20;;;13.10;;
39782;SDS011;25462;51.164;17.100;2023-03-17T02:08:16;35.60;;;13.70;;
39782;SDS011;25462;51.164;17.100;2023-03-17T02:13:20;33.60;;;13.00;;
39782;SDS011;25462;51.164;17.100;2023-03-17T02:18:28;29.50;;;12.30;;
39782;SDS011;25462;51.164;17.100;2023-03-17T02:23:32;31.60;;;12.90;;
39782;SDS011;25462;51.164;17.100;2023-03-17T02:28:37;32.90;;;12.30;;
39782;SDS011;25462;51.164;17.100;2023-03-17T02:33:42;27.10;;;11.50;;
39782;SDS011;25462;51.164;17.100;2023-03-17T02:38:47;30.70;;;11.80;;
39782;SDS011;25462;51.164;17.100;2023-03-17T02:43:51;29.30;;;11.00;;
39782;SDS011;25462;51.164;17.100;2023-03-17T02:48:56;31.50;;;12.20;;
39782;SDS011;25462;51.164;17.100;2023-03-17T02:54:01;30.30;;;12.70;;
39782;SDS011;25462;51.164;17.100;2023-03-17T02:59:05;30.50;;;11.50;;
39782;SDS011;25462;51.164;17.100;2023-03-17T03:04:10;24.20;;;11.30;;
39782;SDS011;25462;51.164;17.100;2023-03-17T03:09:17;27.10;;;12.10;;
39782;SDS011;25462;51.164;17.100;2023-03-17T03:14:23;32.00;;;13.30;;
39782;SDS011;25462;51.164;17.100;2023-03-17T03:19:28;37.10;;;12.90;;
39782;SDS011;25462;51.164;17.100;2023-03-17T03:24:32;31.90;;;12.70;;
39782;SDS011;25462;51.164;17.100;2023-03-17T03:29:36;36.50;;;14.30;;
39782;SDS011;25462;51.164;17.100;2023-03-17T03:34:40;40.10;;;14.30;;
39782;SDS011;25462;51.164;17.100;2023-03-17T03:39:45;34.20;;;13.00;;
39782;SDS011;25462;51.164;17.100;2023-03-17T03:44:50;30.50;;;13.70;;
39782;SDS011;25462;51.164;17.100;2023-03-17T03:49:57;26.40;;;12.10;;
39782;SDS011;25462;51.164;17.100;2023-03-17T03:55:01;26.00;;;10.80;;
39782;SDS011;25462;51.164;17.100;2023-03-17T04:00:06;27.40;;;11.70;;
39782;SDS011;25462;51.164;17.100;2023-03-17T04:05:15;23.80;;;10.50;;
39782;SDS011;25462;51.164;17.100;2023-03-17T04:10:24;26.30;;;11.10;;
39782;SDS011;25462;51.164;17.100;2023-03-17T04:15:29;26.60;;;11.00;;
39782;SDS011;25462;51.164;17.100;2023-03-17T04:20:33;28.60;;;11.50;;
39782;SDS011;25462;51.164;17.100;2023-03-17T04:25:38;32.10;;;12.50;;
39782;SDS011;25462;51.164;17.100;2023-03-17T04:30:43;30.00;;;12.90;;
39782;SDS011;25462;51.164;17.100;2023-03-17T04:35:49;29.00;;;12.90;;
39782;SDS011;25462;51.164;17.100;2023-03-17T04:40:54;30.90;;;12.40;;
39782;SDS011;25462;51.164;17.100;2023-03-17T04:45:59;30.80;;;11.30;;
39782;SDS011;25462;51.164;17.100;2023-03-17T04:51:03;28.60;;;11.30;;
39782;SDS011;25462;51.164;17.100;2023-03-17T04:56:08;29.40;;;12.00;;
39782;SDS011;25462;51.164;17.100;2023-03-17T05:01:12;49.90;;;19.30;;
39782;SDS011;25462;51.164;17.100;2023-03-17T05:06:17;34.80;;;16.20;;
39782;SDS011;25462;51.164;17.100;2023-03-17T05:11:22;30.50;;;12.60;;
39782;SDS011;25462;51.164;17.100;2023-03-17T05:16:27;37.30;;;15.30;;
39782;SDS011;25462;51.164;17.100;2023-03-17T05:21:32;32.30;;;15.40;;
39782;SDS011;25462;51.164;17.100;2023-03-17T05:26:37;28.20;;;13.10;;
39782;SDS011;25462;51.164;17.100;2023-03-17T05:31:41;29.70;;;13.20;;
39782;SDS011;25462;51.164;17.100;2023-03-17T05:36:46;33.00;;;13.80;;
39782;SDS011;25462;51.164;17.100;2023-03-17T05:41:50;43.80;;;17.00;;
39782;SDS011;25462;51.164;17.100;2023-03-17T05:46:55;45.50;;;19.30;;
39782;SDS011;25462;51.164;17.100;2023-03-17T05:52:03;40.70;;;17.40;;
39782;SDS011;25462;51.164;17.100;2023-03-17T05:57:07;45.50;;;19.20;;
39782;SDS011;25462;51.164;17.100;2023-03-17T06:02:11;33.30;;;15.50;;
39782;SDS011;25462;51.164;17.100;2023-03-17T06:07:16;45.20;;;17.20;;
39782;SDS011;25462;51.164;17.100;2023-03-17T06:12:21;37.10;;;15.40;;
39782;SDS011;25462;51.164;17.100;2023-03-17T06:17:25;37.50;;;16.60;;
39782;SDS011;25462;51.164;17.100;2023-03-17T06:22:30;37.60;;;15.40;;
39782;SDS011;25462;51.164;17.100;2023-03-17T06:27:35;32.10;;;13.80;;
39782;SDS011;25462;51.164;17.100;2023-03-17T06:32:40;30.10;;;14.20;;
39782;SDS011;25462;51.164;17.100;2023-03-17T06:37:46;32.80;;;14.70;;
39782;SDS011;25462;51.164;17.100;2023-03-17T06:42:52;39.20;;;16.30;;
39782;SDS011;25462;51.164;17.100;2023-03-17T06:47:58;32.50;;;14.10;;
39782;SDS011;25462;51.164;17.100;2023-03-17T06:53:03;40.80;;;16.00;;
39782;SDS011;25462;51.164;17.100;2023-03-17T06:58:10;36.00;;;15.40;;
39782;SDS011;25462;51.164;17.100;2023-03-17T07:03:16;33.80;;;15.60;;
39782;SDS011;25462;51.164;17.100;2023-03-17T07:08:21;32.90;;;14.60;;
39782;SDS011;25462;51.164;17.100;2023-03-17T07:13:25;35.90;;;15.90;;
39782;SDS011;25462;51.164;17.100;2023-03-17T07:18:29;36.20;;;17.20;;
39782;SDS011;25462;51.164;17.100;2023-03-17T07:23:37;40.40;;;17.40;;
39782;SDS011;25462;51.164;17.100;2023-03-17T07:28:41;40.40;;;17.00;;
39782;SDS011;25462;51.164;17.100;2023-03-17T07:33:46;31.50;;;13.40;;
39782;SDS011;25462;51.164;17.100;2023-03-17T07:38:50;37.70;;;15.80;;
39782;SDS011;25462;51.164;17.100;2023-03-17T07:43:56;31.30;;;14.60;;
39782;SDS011;25462;51.164;17.100;2023-03-17T07:49:00;32.80;;;14.30;;
39782;SDS011;25462;51.164;17.100;2023-03-17T07:54:05;30.20;;;14.00;;
39782;SDS011;25462;51.164;17.100;2023-03-17T07:59:10;39.80;;;15.30;;
39782;SDS011;25462;51.164;17.100;2023-03-17T08:04:15;32.50;;;13.60;;
39782;SDS011;25462;51.164;17.100;2023-03-17T08:09:19;28.90;;;15.10;;
39782;SDS011;25462;51.164;17.100;2023-03-17T08:14:27;32.00;;;13.90;;
39782;SDS011;25462;51.164;17.100;2023-03-17T08:19:31;28.90;;;14.70;;
39782;SDS011;25462;51.164;17.100;2023-03-17T08:24:36;25.00;;;12.80;;
39782;SDS011;25462;51.164;17.100;2023-03-17T08:29:43;27.30;;;13.00;;
39782;SDS011;25462;51.164;17.100;2023-03-17T08:34:52;27.50;;;13.60;;
39782;SDS011;25462;51.164;17.100;2023-03-17T08:39:56;27.10;;;12.40;;
39782;SDS011;25462;51.164;17.100;2023-03-17T08:45:01;23.10;;;12.70;;
39782;SDS011;25462;51.164;17.100;2023-03-17T08:50:07;19.90;;;10.90;;
39782;SDS011;25462;51.164;17.100;2023-03-17T08:55:14;26.40;;;11.90;;
39782;SDS011;25462;51.164;17.100;2023-03-17T09:00:19;22.40;;;11.20;;
39782;SDS011;25462;51.164;17.100;2023-03-17T09:05:23;23.20;;;11.30;;
39782;SDS011;25462;51.164;17.100;2023-03-17T09:10:29;18.20;;;10.00;;
39782;SDS011;25462;51.164;17.100;2023-03-17T09:15:34;26.90;;;11.00;;
39782;SDS011;25462;51.164;17.100;2023-03-17T09:20:38;18.50;;;8.50;;
39782;SDS011;25462;51.164;17.100;2023-03-17T09:25:43;18.80;;;8.40;;
39782;SDS011;25462;51.164;17.100;2023-03-17T09:30:47;18.70;;;8.30;;
39782;SDS011;25462;51.164;17.100;2023-03-17T09:35:50;17.50;;;8.40;;
39782;SDS011;25462;51.164;17.100;2023-03-17T09:52:02;15.30;;;6.70;;
39782;SDS011;25462;51.164;17.100;2023-03-17T09:57:11;17.20;;;7.60;;
39782;SDS011;25462;51.164;17.100;2023-03-17T10:07:49;10.00;;;5.10;;
39782;SDS011;25462;51.164;17.100;2023-03-17T10:18:29;11.60;;;5.10;;
39782;SDS011;25462;51.164;17.100;2023-03-17T10:23:55;9.00;;;4.70;;
39782;SDS011;25462;51.164;17.100;2023-03-17T10:29:00;9.00;;;4.70;;
39782;SDS011;25462;51.164;17.100;2023-03-17T10:39:25;12.30;;;4.10;;
39782;SDS011;25462;51.164;17.100;2023-03-17T10:55:40;6.60;;;3.30;;
39782;SDS011;25462;51.164;17.100;2023-03-17T11:06:36;9.70;;;3.80;;
39782;SDS011;25462;51.164;17.100;2023-03-17T11:11:47;6.50;;;3.10;;
39782;SDS011;25462;51.164;17.100;2023-03-17T11:22:09;8.50;;;3.50;;
39782;SDS011;25462;51.164;17.100;2023-03-17T11:27:27;7.00;;;3.40;;
39782;SDS011;25462;51.164;17.100;2023-03-17T11:32:47;6.40;;;2.80;;
39782;SDS011;25462;51.164;17.100;2023-03-17T11:49:13;8.10;;;3.60;;
39782;SDS011;25462;51.164;17.100;2023-03-17T11:54:39;7.50;;;3.80;;
39782;SDS011;25462;51.164;17.100;2023-03-17T11:59:58;6.90;;;2.60;;
39782;SDS011;25462;51.164;17.100;2023-03-17T12:05:21;7.80;;;2.90;;
39782;SDS011;25462;51.164;17.100;2023-03-17T12:10:38;6.40;;;2.90;;
39782;SDS011;25462;51.164;17.100;2023-03-17T12:21:54;7.10;;;2.40;;
39782;SDS011;25462;51.164;17.100;2023-03-17T12:27:02;7.20;;;2.60;;
39782;SDS011;25462;51.164;17.100;2023-03-17T12:37:16;6.60;;;3.00;;
39782;SDS011;25462;51.164;17.100;2023-03-17T12:42:25;6.80;;;3.40;;
39782;SDS011;25462;51.164;17.100;2023-03-17T12:58:51;8.70;;;3.20;;
39782;SDS011;25462;51.164;17.100;2023-03-17T13:04:03;9.00;;;3.00;;
39782;SDS011;25462;51.164;17.100;2023-03-17T13:14:44;6.80;;;2.70;;
39782;SDS011;25462;51.164;17.100;2023-03-17T13:25:46;7.30;;;3.20;;
39782;SDS011;25462;51.164;17.100;2023-03-17T13:31:10;7.90;;;3.30;;
39782;SDS011;25462;51.164;17.100;2023-03-17T13:36:26;6.90;;;3.10;;
39782;SDS011;25462;51.164;17.100;2023-03-17T13:52:29;10.00;;;3.30;;
39782;SDS011;25462;51.164;17.100;2023-03-17T13:57:35;6.00;;;3.00;;
39782;SDS011;25462;51.164;17.100;2023-03-17T14:02:41;7.50;;;3.00;;
39782;SDS011;25462;51.164;17.100;2023-03-17T14:07:57;6.60;;;3.70;;
39782;SDS011;25462;51.164;17.100;2023-03-17T14:18:28;8.10;;;3.60;;
39782;SDS011;25462;51.164;17.100;2023-03-17T14:23:35;5.50;;;3.10;;
39782;SDS011;25462;51.164;17.100;2023-03-17T14:28:40;8.00;;;3.70;;
39782;SDS011;25462;51.164;17.100;2023-03-17T14:33:44;7.70;;;3.00;;
39782;SDS011;25462;51.164;17.100;2023-03-17T14:38:49;5.90;;;3.00;;
39782;SDS011;25462;51.164;17.100;2023-03-17T14:43:58;10.00;;;3.30;;
39782;SDS011;25462;51.164;17.100;2023-03-17T14:49:18;5.70;;;3.40;;
39782;SDS011;25462;51.164;17.100;2023-03-17T14:54:25;8.70;;;3.30;;
39782;SDS011;25462;51.164;17.100;2023-03-17T14:59:34;6.80;;;3.20;;
39782;SDS011;25462;51.164;17.100;2023-03-17T15:04:47;8.00;;;3.40;;
39782;SDS011;25462;51.164;17.100;2023-03-17T15:09:57;9.20;;;3.80;;
39782;SDS011;25462;51.164;17.100;2023-03-17T15:15:10;8.50;;;3.20;;
39782;SDS011;25462;51.164;17.100;2023-03-17T15:20:26;7.60;;;3.10;;
39782;SDS011;25462;51.164;17.100;2023-03-17T15:25:33;6.60;;;2.70;;
39782;SDS011;25462;51.164;17.100;2023-03-17T15:30:44;6.80;;;3.10;;
39782;SDS011;25462;51.164;17.100;2023-03-17T15:35:51;10.60;;;4.10;;
39782;SDS011;25462;51.164;17.100;2023-03-17T15:41:02;6.40;;;3.10;;
39782;SDS011;25462;51.164;17.100;2023-03-17T15:46:09;7.00;;;3.10;;
39782;SDS011;25462;51.164;17.100;2023-03-17T15:51:24;8.80;;;4.40;;
39782;SDS011;25462;51.164;17.100;2023-03-17T15:56:29;10.80;;;3.80;;
39782;SDS011;25462;51.164;17.100;2023-03-17T16:01:34;10.20;;;4.20;;
39782;SDS011;25462;51.164;17.100;2023-03-17T16:06:40;7.20;;;3.70;;
39782;SDS011;25462;51.164;17.100;2023-03-17T16:11:44;7.70;;;3.60;;
39782;SDS011;25462;51.164;17.100;2023-03-17T16:16:47;7.20;;;3.80;;
39782;SDS011;25462;51.164;17.100;2023-03-17T16:21:51;8.80;;;3.70;;
39782;SDS011;25462;51.164;17.100;2023-03-17T16:26:57;12.60;;;5.20;;
39782;SDS011;25462;51.164;17.100;2023-03-17T16:32:01;10.20;;;4.40;;
39782;SDS011;25462;51.164;17.100;2023-03-17T16:37:07;9.40;;;4.30;;
39782;SDS011;25462;51.164;17.100;2023-03-17T16:42:21;12.10;;;4.80;;
39782;SDS011;25462;51.164;17.100;2023-03-17T16:47:28;15.70;;;5.50;;
39782;SDS011;25462;51.164;17.100;2023-03-17T16:52:33;10.70;;;4.60;;
39782;SDS011;25462;51.164;17.100;2023-03-17T16:57:37;13.60;;;5.80;;
39782;SDS011;25462;51.164;17.100;2023-03-17T17:02:42;13.60;;;6.00;;
39782;SDS011;25462;51.164;17.100;2023-03-17T17:07:53;14.60;;;6.40;;
39782;SDS011;25462;51.164;17.100;2023-03-17T17:13:00;13.30;;;5.80;;
39782;SDS011;25462;51.164;17.100;2023-03-17T17:18:15;13.10;;;5.30;;
39782;SDS011;25462;51.164;17.100;2023-03-17T17:23:24;10.30;;;5.50;;
39782;SDS011;25462;51.164;17.100;2023-03-17T17:28:30;12.10;;;5.30;;
39782;SDS011;25462;51.164;17.100;2023-03-17T17:33:35;12.00;;;6.10;;
39782;SDS011;25462;51.164;17.100;2023-03-17T17:38:40;10.10;;;4.50;;
39782;SDS011;25462;51.164;17.100;2023-03-17T17:43:45;12.10;;;5.50;;
39782;SDS011;25462;51.164;17.100;2023-03-17T17:48:54;14.00;;;6.40;;
39782;SDS011;25462;51.164;17.100;2023-03-17T17:54:05;15.20;;;6.70;;
39782;SDS011;25462;51.164;17.100;2023-03-17T17:59:12;14.00;;;6.80;;
39782;SDS011;25462;51.164;17.100;2023-03-17T18:04:18;13.80;;;6.60;;
39782;SDS011;25462;51.164;17.100;2023-03-17T18:09:23;15.00;;;6.40;;
39782;SDS011;25462;51.164;17.100;2023-03-17T18:14:34;17.40;;;7.10;;
39782;SDS011;25462;51.164;17.100;2023-03-17T18:19:40;16.30;;;6.90;;
39782;SDS011;25462;51.164;17.100;2023-03-17T18:24:48;13.00;;;6.80;;
39782;SDS011;25462;51.164;17.100;2023-03-17T18:29:54;13.00;;;5.80;;
39782;SDS011;25462;51.164;17.100;2023-03-17T18:35:09;12.70;;;7.10;;
39782;SDS011;25462;51.164;17.100;2023-03-17T18:40:19;16.70;;;6.90;;
39782;SDS011;25462;51.164;17.100;2023-03-17T18:45:26;12.90;;;5.60;;
39782;SDS011;25462;51.164;17.100;2023-03-17T18:50:33;19.50;;;6.60;;
39782;SDS011;25462;51.164;17.100;2023-03-17T18:55:48;15.20;;;6.10;;
39782;SDS011;25462;51.164;17.100;2023-03-17T19:00:58;16.30;;;7.70;;
39782;SDS011;25462;51.164;17.100;2023-03-17T19:06:08;15.30;;;6.90;;
39782;SDS011;25462;51.164;17.100;2023-03-17T19:11:23;19.20;;;6.80;;
39782;SDS011;25462;51.164;17.100;2023-03-17T19:16:30;16.10;;;7.00;;
39782;SDS011;25462;51.164;17.100;2023-03-17T19:21:40;15.70;;;6.60;;
39782;SDS011;25462;51.164;17.100;2023-03-17T19:26:53;17.20;;;7.80;;
39782;SDS011;25462;51.164;17.100;2023-03-17T19:31:58;23.10;;;7.20;;
39782;SDS011;25462;51.164;17.100;2023-03-17T19:37:05;14.10;;;6.50;;
39782;SDS011;25462;51.164;17.100;2023-03-17T19:42:11;16.50;;;8.40;;
39782;SDS011;25462;51.164;17.100;2023-03-17T19:47:22;18.60;;;9.00;;
39782;SDS011;25462;51.164;17.100;2023-03-17T19:52:28;19.40;;;7.90;;
39782;SDS011;25462;51.164;17.100;2023-03-17T19:57:34;20.00;;;8.30;;
39782;SDS011;25462;51.164;17.100;2023-03-17T20:02:41;18.90;;;8.20;;
39782;SDS011;25462;51.164;17.100;2023-03-17T20:07:47;21.00;;;8.30;;
39782;SDS011;25462;51.164;17.100;2023-03-17T20:12:56;15.60;;;8.00;;
39782;SDS011;25462;51.164;17.100;2023-03-17T20:18:02;20.40;;;8.20;;
39782;SDS011;25462;51.164;17.100;2023-03-17T20:23:09;19.70;;;8.00;;
39782;SDS011;25462;51.164;17.100;2023-03-17T20:28:16;20.20;;;8.90;;
39782;SDS011;25462;51.164;17.100;2023-03-17T20:33:24;19.40;;;7.70;;
39782;SDS011;25462;51.164;17.100;2023-03-17T20:38:32;18.20;;;8.50;;
39782;SDS011;25462;51.164;17.100;2023-03-17T20:43:42;23.40;;;9.30;;
39782;SDS011;25462;51.164;17.100;2023-03-17T20:48:51;25.40;;;9.70;;
39782;SDS011;25462;51.164;17.100;2023-03-17T20:54:03;23.30;;;10.50;;
39782;SDS011;25462;51.164;17.100;2023-03-17T20:59:09;24.90;;;10.70;;
39782;SDS011;25462;51.164;17.100;2023-03-17T21:04:17;25.50;;;10.30;;
39782;SDS011;25462;51.164;17.100;2023-03-17T21:09:24;18.50;;;9.10;;
39782;SDS011;25462;51.164;17.100;2023-03-17T21:14:30;26.80;;;9.60;;
39782;SDS011;25462;51.164;17.100;2023-03-17T21:19:36;23.30;;;9.60;;
39782;SDS011;25462;51.164;17.100;2023-03-17T21:24:58;25.30;;;10.20;;
39782;SDS011;25462;51.164;17.100;2023-03-17T21:30:11;29.20;;;10.70;;
39782;SDS011;25462;51.164;17.100;2023-03-17T21:35:45;19.30;;;9.10;;
39782;SDS011;25462;51.164;17.100;2023-03-17T21:46:58;24.80;;;10.80;;
39782;SDS011;25462;51.164;17.100;2023-03-17T21:52:14;25.20;;;10.30;;
39782;SDS011;25462;51.164;17.100;2023-03-17T21:57:49;23.30;;;10.40;;
39782;SDS011;25462;51.164;17.100;2023-03-17T22:03:02;25.20;;;10.30;;
39782;SDS011;25462;51.164;17.100;2023-03-17T22:08:15;23.20;;;10.00;;
39782;SDS011;25462;51.164;17.100;2023-03-17T22:13:34;23.20;;;10.40;;
39782;SDS011;25462;51.164;17.100;2023-03-17T22:18:48;23.70;;;10.80;;
39782;SDS011;25462;51.164;17.100;2023-03-17T22:24:13;21.90;;;10.40;;
39782;SDS011;25462;51.164;17.100;2023-03-17T22:29:23;23.10;;;10.60;;
39782;SDS011;25462;51.164;17.100;2023-03-17T22:34:41;23.70;;;10.70;;
39782;SDS011;25462;51.164;17.100;2023-03-17T22:39:51;26.90;;;11.60;;
39782;SDS011;25462;51.164;17.100;2023-03-17T22:44:55;22.30;;;9.70;;
39782;SDS011;25462;51.164;17.100;2023-03-17T22:50:06;24.10;;;10.00;;
39782;SDS011;25462;51.164;17.100;2023-03-17T22:55:14;20.00;;;10.20;;
39782;SDS011;25462;51.164;17.100;2023-03-17T23:00:24;21.70;;;9.70;;
39782;SDS011;25462;51.164;17.100;2023-03-17T23:05:29;21.70;;;9.80;;
39782;SDS011;25462;51.164;17.100;2023-03-17T23:10:33;21.90;;;10.10;;
39782;SDS011;25462;51.164;17.100;2023-03-17T23:15:37;26.80;;;10.50;;
39782;SDS011;25462;51.164;17.100;2023-03-17T23:20:41;20.20;;;9.40;;
39782;SDS011;25462;51.164;17.100;2023-03-17T23:25:45;18.70;;;8.60;;
39782;SDS011;25462;51.164;17.100;2023-03-17T23:30:50;21.40;;;10.50;;
39782;SDS011;25462;51.164;17.100;2023-03-17T23:35:55;20.60;;;9.90;;
39782;SDS011;25462;51.164;17.100;2023-03-17T23:40:59;22.00;;;9.20;;
39782;SDS011;25462;51.164;17.100;2023-03-17T23:46:04;19.40;;;8.60;;
39782;SDS011;25462;51.164;17.100;2023-03-17T23:51:08;15.90;;;8.90;;
39782;SDS011;25462;51.164;17.100;2023-03-17T23:56:14;19.80;;;9.30;;
